Time;durP1;ratioP1;P1;durP2;ratioP2;P2;SDS_P1;SDS_P2;PMS_P1;PMS_P2;Temp;Humidity;BMP_temperature;BMP_pressure;BME280_temperature;BME280_humidity;BME280_pressure;Samples;Min_cycle;Max_cycle;Signal;HPM_P1;HPM_P2
2022/10/19 00:02:06;;;;;;;14.58;9.95;;;;;;;13.01;51.69;99622.72;1847206;77;21000;-73
2022/10/19 00:04:33;;;;;;;14.05;9.43;;;;;;;12.98;51.78;99617.26;1846779;77;21011;-74
2022/10/19 00:07:01;;;;;;;14.05;9.50;;;;;;;12.96;51.75;99609.92;1824758;77;21485;-75
2022/10/19 00:09:28;;;;;;;13.78;9.80;;;;;;;12.92;51.97;99620.16;1851831;77;21057;-75
2022/10/19 00:11:55;;;;;;;17.23;10.65;;;;;;;12.91;52.04;99612.34;1803830;78;21839;-74
2022/10/19 00:14:22;;;;;;;14.90;8.88;;;;;;;12.88;52.15;99606.04;1779948;78;21105;-75
2022/10/19 00:16:51;;;;;;;12.80;9.83;;;;;;;12.84;52.26;99602.09;1781272;79;21092;-76
2022/10/19 00:19:22;;;;;;;16.62;9.88;;;;;;;12.80;52.39;99596.31;1787388;79;21072;-75
2022/10/19 00:21:48;;;;;;;18.35;9.73;;;;;;;12.74;52.55;99587.21;1798755;79;21060;-76
2022/10/19 00:24:15;;;;;;;18.02;10.48;;;;;;;12.69;52.77;99603.44;1797188;79;21197;-76
2022/10/19 00:26:42;;;;;;;13.68;9.65;;;;;;;12.64;52.81;99572.02;1787913;79;21567;-76
2022/10/19 00:29:11;;;;;;;17.77;10.10;;;;;;;12.61;53.11;99579.55;1813779;78;20997;-75
2022/10/19 00:31:38;;;;;;;15.75;10.32;;;;;;;12.57;53.23;99567.95;1811937;78;21025;-75
2022/10/19 00:34:05;;;;;;;16.62;9.93;;;;;;;12.55;53.38;99563.80;1789346;78;21076;-78
2022/10/19 00:36:37;;;;;;;16.37;10.35;;;;;;;12.52;53.61;99568.19;1808642;78;21812;-77
2022/10/19 00:39:05;;;;;;;13.72;9.75;;;;;;;12.50;53.73;99562.22;1772742;78;21231;-76
2022/10/19 00:41:34;;;;;;;19.40;9.80;;;;;;;12.46;53.95;99556.91;1785007;78;21057;-77
2022/10/19 00:44:14;;;;;;;16.20;9.45;;;;;;;12.43;54.03;99546.64;1742011;80;20977;-76
2022/10/19 00:46:43;;;;;;;16.48;9.88;;;;;;;12.39;54.12;99549.66;1785214;80;21010;-74
2022/10/19 00:49:26;;;;;;;16.25;9.88;;;;;;;12.36;54.32;99542.55;1772662;78;21567;-75
2022/10/19 00:51:55;;;;;;;15.18;9.50;;;;;;;12.32;54.48;99541.27;1769287;79;21128;-76
2022/10/19 00:54:22;;;;;;;14.55;10.08;;;;;;;12.28;54.63;99546.13;1775220;79;21072;-75
2022/10/19 00:56:51;;;;;;;13.95;9.63;;;;;;;12.25;54.70;99520.39;1809751;79;21194;-71
2022/10/19 00:59:19;;;;;;;14.55;9.80;;;;;;;12.23;54.79;99518.39;1786193;79;21354;-74
2022/10/19 01:01:46;;;;;;;19.90;10.38;;;;;;;12.19;54.98;99521.95;1789527;79;21091;-76
2022/10/19 01:04:13;;;;;;;12.35;8.75;;;;;;;12.18;55.03;99514.95;1751492;80;21071;-73
2022/10/19 01:06:40;;;;;;;19.27;10.93;;;;;;;12.15;55.18;99514.83;1811910;79;21018;-75
2022/10/19 01:09:07;;;;;;;17.02;9.65;;;;;;;12.15;55.24;99511.35;1810591;77;21052;-77
2022/10/19 01:12:13;;;;;;;15.05;9.03;;;;;;;12.14;55.29;99508.35;1802395;78;21069;-74
2022/10/19 01:15:15;;;;;;;17.17;10.48;;;;;;;12.11;55.47;99503.38;1793861;77;21711;-75
2022/10/19 01:18:03;;;;;;;15.65;10.13;;;;;;;12.09;55.48;99504.07;1770587;79;21014;-74
2022/10/19 01:21:11;;;;;;;14.18;9.40;;;;;;;12.04;55.75;99499.31;1766830;80;21077;-74
2022/10/19 01:24:16;;;;;;;15.32;10.30;;;;;;;11.98;56.12;99500.86;1766749;80;21499;-74
2022/10/19 01:27:06;;;;;;;15.53;10.10;;;;;;;11.94;56.37;99498.25;1773887;80;20970;-77
2022/10/19 01:30:09;;;;;;;13.30;10.13;;;;;;;11.88;56.66;99490.13;1774086;80;21531;-77
2022/10/19 01:32:59;;;;;;;17.42;11.00;;;;;;;11.81;57.02;99487.38;1738043;80;21022;-76
2022/10/19 01:35:40;;;;;;;17.45;10.78;;;;;;;11.77;57.20;99489.57;1780412;80;21046;-77
2022/10/19 01:38:23;;;;;;;17.00;9.13;;;;;;;11.73;57.40;99488.80;1782962;80;21563;-78
2022/10/19 01:41:07;;;;;;;16.60;10.98;;;;;;;11.69;57.59;99484.34;1767403;79;21053;-76
2022/10/19 01:43:42;;;;;;;20.25;10.75;;;;;;;11.67;57.99;99481.03;1775963;80;22000;-77
2022/10/19 01:46:19;;;;;;;15.32;10.35;;;;;;;11.65;58.11;99474.22;1811826;77;20939;-77
2022/10/19 01:48:57;;;;;;;16.10;11.25;;;;;;;11.61;58.32;99471.94;1802720;77;21035;-77
2022/10/19 01:51:34;;;;;;;15.43;10.03;;;;;;;11.58;58.45;99460.31;1812257;78;21666;-77
2022/10/19 01:54:05;;;;;;;12.37;9.70;;;;;;;11.55;58.78;99459.37;1807118;78;21010;-78
2022/10/19 01:56:32;;;;;;;14.43;9.93;;;;;;;11.52;58.97;99459.72;1789879;78;21082;-75
2022/10/19 01:59:00;;;;;;;15.90;10.45;;;;;;;11.51;59.22;99463.41;1793798;79;21009;-78
2022/10/19 02:01:29;;;;;;;14.80;10.30;;;;;;;11.51;59.31;99455.91;1828913;77;20988;-77
2022/10/19 02:03:56;;;;;;;18.52;11.43;;;;;;;11.48;59.57;99456.28;1789170;79;21024;-79
2022/10/19 02:06:23;;;;;;;20.10;11.50;;;;;;;11.45;59.63;99454.79;1780193;79;21355;-78
2022/10/19 02:08:52;;;;;;;16.42;10.95;;;;;;;11.44;59.88;99459.80;1822565;77;21036;-78
2022/10/19 02:11:20;;;;;;;16.45;10.78;;;;;;;11.42;59.88;99448.52;1803120;77;20998;-77
2022/10/19 02:13:51;;;;;;;18.27;10.43;;;;;;;11.40;60.28;99448.69;1801937;78;21566;-79
2022/10/19 02:16:23;;;;;;;15.80;10.15;;;;;;;11.28;60.44;99428.87;1814407;78;21076;-81
2022/10/19 02:18:51;;;;;;;17.00;10.20;;;;;;;11.36;60.78;99443.92;1811513;78;21049;-76
2022/10/19 02:21:18;;;;;;;16.48;10.32;;;;;;;11.34;60.89;99438.78;1794606;79;21591;-78
2022/10/19 02:23:44;;;;;;;16.27;10.28;;;;;;;11.33;61.23;99452.25;1796051;78;21053;-78
2022/10/19 02:26:11;;;;;;;16.15;9.83;;;;;;;11.31;61.24;99439.64;1798456;78;21010;-79
2022/10/19 02:28:37;;;;;;;16.30;10.63;;;;;;;11.29;61.51;99449.63;1812091;77;21045;-78
2022/10/19 02:31:04;;;;;;;16.70;10.88;;;;;;;11.28;61.63;99452.80;1780031;78;21045;-76
2022/10/19 02:33:30;;;;;;;16.93;11.05;;;;;;;11.26;61.78;99446.84;1796809;79;21204;-80
2022/10/19 02:35:57;;;;;;;15.32;11.15;;;;;;;11.25;62.11;99448.34;1792672;78;21085;-78
2022/10/19 02:38:25;;;;;;;14.18;10.50;;;;;;;11.25;62.06;99440.37;1830198;78;21048;-77
2022/10/19 02:40:57;;;;;;;18.20;11.50;;;;;;;11.23;62.27;99443.71;1807195;78;21036;-79
2022/10/19 02:43:23;;;;;;;20.75;11.40;;;;;;;11.21;62.50;99446.55;1792063;79;21053;-78
2022/10/19 02:46:06;;;;;;;17.12;10.43;;;;;;;11.20;62.48;99444.39;1811593;78;21102;-80
2022/10/19 02:48:33;;;;;;;17.15;10.98;;;;;;;11.19;62.93;99444.05;1816340;78;21041;-79
2022/10/19 02:50:59;;;;;;;18.35;10.90;;;;;;;11.17;62.73;99446.07;1773393;80;21042;-79
2022/10/19 02:53:26;;;;;;;17.62;11.63;;;;;;;11.16;63.01;99448.42;1775717;80;21070;-79
2022/10/19 02:55:52;;;;;;;16.97;10.38;;;;;;;11.14;63.28;99441.61;1775670;79;21025;-78
2022/10/19 02:58:19;;;;;;;20.57;12.60;;;;;;;11.12;63.59;99444.44;1791837;79;21233;-79
2022/10/19 03:00:45;;;;;;;17.95;11.25;;;;;;;11.11;63.46;99440.14;1785657;79;21033;-78
2022/10/19 03:03:12;;;;;;;19.32;12.30;;;;;;;11.12;63.66;99434.31;1788119;79;21510;-76
2022/10/19 03:05:38;;;;;;;18.25;11.28;;;;;;;11.11;63.83;99434.83;1795118;79;21037;-79
2022/10/19 03:08:05;;;;;;;16.73;11.25;;;;;;;11.10;64.21;99423.86;1785263;79;21092;-78
2022/10/19 03:10:31;;;;;;;17.57;11.88;;;;;;;11.06;64.64;99427.88;1794908;79;21206;-79
2022/10/19 03:12:58;;;;;;;15.05;10.63;;;;;;;11.05;64.62;99422.26;1797667;79;21020;-74
2022/10/19 03:15:28;;;;;;;18.35;11.35;;;;;;;11.04;64.64;99419.27;1792699;79;21037;-77
2022/10/19 03:17:55;;;;;;;18.77;12.33;;;;;;;11.06;64.58;99421.23;1796416;79;21025;-76
2022/10/19 03:20:22;;;;;;;19.75;12.58;;;;;;;11.08;64.63;99420.55;1799263;78;21084;-75
2022/10/19 03:22:49;;;;;;;21.02;12.58;;;;;;;11.10;64.69;99422.53;1795498;79;21035;-76
2022/10/19 03:25:15;;;;;;;17.07;11.53;;;;;;;11.11;64.99;99419.39;1800194;78;21017;-78
2022/10/19 03:27:42;;;;;;;19.55;12.43;;;;;;;11.12;64.87;99421.02;1758675;80;21014;-76
2022/10/19 03:30:10;;;;;;;17.73;12.47;;;;;;;11.11;65.13;99421.53;1782092;79;21481;-76
2022/10/19 03:32:38;;;;;;;20.82;14.05;;;;;;;11.11;65.22;99417.55;1790672;79;21040;-73
2022/10/19 03:35:06;;;;;;;23.15;14.23;;;;;;;11.12;65.31;99415.20;1801443;79;21806;-76
2022/10/19 03:37:32;;;;;;;18.55;13.30;;;;;;;11.13;65.87;99410.73;1792348;78;21146;-79
2022/10/19 03:39:59;;;;;;;21.20;13.75;;;;;;;11.13;65.88;99406.73;1800835;79;21025;-79
2022/10/19 03:42:26;;;;;;;19.52;12.88;;;;;;;11.16;65.88;99403.70;1771335;79;21048;-77
2022/10/19 03:44:52;;;;;;;15.13;12.07;;;;;;;11.19;66.05;99400.70;1770821;79;21500;-78
2022/10/19 03:47:20;;;;;;;16.23;13.20;;;;;;;11.20;66.20;99400.52;1790486;79;21057;-79
2022/10/19 03:49:49;;;;;;;19.05;12.73;;;;;;;11.23;66.31;99395.84;1817682;78;21014;-79
2022/10/19 03:52:19;;;;;;;22.17;13.03;;;;;;;11.24;66.32;99412.92;1790167;78;21073;-80
2022/10/19 03:54:50;;;;;;;18.92;12.15;;;;;;;11.28;66.40;99412.06;1794492;78;21529;-79
2022/10/19 03:57:16;;;;;;;17.27;12.05;;;;;;;11.29;66.60;99407.09;1773237;79;21027;-77
2022/10/19 03:59:45;;;;;;;20.80;12.78;;;;;;;11.27;66.96;99406.45;1770115;79;21073;-80
2022/10/19 04:02:11;;;;;;;20.05;13.45;;;;;;;11.31;66.91;99403.73;1791349;79;21048;-77
2022/10/19 04:04:38;;;;;;;20.17;14.00;;;;;;;11.35;67.13;99409.02;1796287;79;21024;-80
2022/10/19 04:07:05;;;;;;;21.37;13.30;;;;;;;11.37;67.36;99418.97;1780058;79;21025;-82
2022/10/19 04:09:31;;;;;;;19.98;14.15;;;;;;;11.38;67.34;99426.77;1820878;78;21033;-81
2022/10/19 04:11:59;;;;;;;18.73;12.70;;;;;;;11.40;67.24;99430.08;1821107;78;21176;-82
2022/10/19 04:14:27;;;;;;;19.32;11.97;;;;;;;11.42;67.45;99428.57;1816577;78;21103;-80
2022/10/19 04:16:54;;;;;;;18.20;12.25;;;;;;;11.53;67.28;99427.28;1773674;79;21013;-78
2022/10/19 04:19:22;;;;;;;23.12;14.10;;;;;;;11.61;67.26;99428.04;1791980;79;21074;-78
2022/10/19 04:21:49;;;;;;;17.37;12.98;;;;;;;11.60;67.21;99428.22;1782433;79;21103;-77
2022/10/19 04:24:17;;;;;;;18.85;12.73;;;;;;;11.60;67.43;99429.55;1774503;79;20986;-77
2022/10/19 04:26:48;;;;;;;22.87;13.35;;;;;;;11.58;67.58;99422.25;1768065;79;21115;-76
2022/10/19 04:29:18;;;;;;;20.52;14.00;;;;;;;11.58;67.95;99426.24;1768494;79;20983;-77
2022/10/19 04:31:44;;;;;;;23.60;12.63;;;;;;;11.58;68.08;99431.05;1771934;79;21053;-77
2022/10/19 04:34:11;;;;;;;23.47;14.55;;;;;;;11.60;68.68;99417.57;1786418;78;21064;-78
2022/10/19 04:36:39;;;;;;;18.85;13.30;;;;;;;11.61;68.84;99412.59;1765053;79;21535;-79
2022/10/19 04:39:05;;;;;;;25.92;14.63;;;;;;;11.63;69.11;99420.36;1768041;79;21084;-78
2022/10/19 04:41:34;;;;;;;21.50;13.43;;;;;;;11.64;69.32;99422.84;1793258;79;21565;-78
2022/10/19 04:44:02;;;;;;;19.80;13.08;;;;;;;11.74;69.45;99423.91;1770738;79;21044;-79
2022/10/19 04:46:29;;;;;;;21.23;13.03;;;;;;;11.87;69.32;99411.30;1786211;80;21016;-75
2022/10/19 04:48:56;;;;;;;18.27;14.25;;;;;;;11.89;69.47;99418.11;1774423;80;21255;-79
2022/10/19 04:51:22;;;;;;;25.85;14.95;;;;;;;11.90;69.84;99433.56;1782997;80;20998;-79
2022/10/19 04:53:50;;;;;;;23.05;14.65;;;;;;;11.90;70.28;99413.60;1778231;80;21498;-78
2022/10/19 04:56:20;;;;;;;22.95;15.15;;;;;;;11.91;71.07;99421.92;1765959;80;21003;-76
2022/10/19 04:58:46;;;;;;;25.52;15.15;;;;;;;11.91;71.58;99429.91;1777749;80;21050;-79
2022/10/19 05:01:17;;;;;;;26.45;15.38;;;;;;;11.87;71.92;99421.43;1781414;80;21055;-77
2022/10/19 05:03:44;;;;;;;18.98;14.18;;;;;;;11.95;72.02;99424.02;1768539;80;21081;-78
2022/10/19 05:06:11;;;;;;;19.60;14.25;;;;;;;12.05;72.05;99434.89;1753072;80;21043;-78
2022/10/19 05:08:38;;;;;;;23.15;15.43;;;;;;;12.03;72.40;99436.92;1761909;80;21018;-78
2022/10/19 05:11:08;;;;;;;24.02;16.87;;;;;;;12.04;72.49;99450.05;1774526;80;21080;-75
2022/10/19 05:13:36;;;;;;;20.37;14.90;;;;;;;12.06;72.69;99455.20;1756600;80;21112;-79
2022/10/19 05:16:05;;;;;;;27.05;16.65;;;;;;;12.09;73.07;99464.98;1778516;80;21047;-78
2022/10/19 05:18:33;;;;;;;19.85;14.15;;;;;;;12.08;73.58;99468.64;1776951;80;21044;-81
2022/10/19 05:21:08;;;;;;;22.20;14.05;;;;;;;12.15;73.70;99470.08;1784806;80;20999;-78
2022/10/19 05:23:34;;;;;;;19.80;14.93;;;;;;;12.27;74.43;99472.58;1778976;80;21025;-78
2022/10/19 05:26:14;;;;;;;20.65;15.55;;;;;;;12.26;74.92;99450.94;1786741;80;21085;-78
2022/10/19 05:28:41;;;;;;;24.35;15.58;;;;;;;12.25;75.40;99457.29;1787171;80;20939;-79
2022/10/19 05:31:17;;;;;;;18.80;14.15;;;;;;;12.23;75.72;99463.79;1788069;80;21156;-80
2022/10/19 05:33:43;;;;;;;22.80;13.75;;;;;;;12.22;75.91;99466.16;1780619;80;21049;-80
2022/10/19 05:36:28;;;;;;;14.78;11.20;;;;;;;12.16;76.18;99442.42;1785335;80;21073;-81
2022/10/19 05:38:56;;;;;;;14.83;11.53;;;;;;;12.34;76.20;99452.19;1786932;80;21791;-80
2022/10/19 05:41:24;;;;;;;16.60;11.73;;;;;;;12.41;76.20;99454.09;1785852;80;20998;-78
2022/10/19 05:43:56;;;;;;;14.50;11.40;;;;;;;12.45;76.23;99480.67;1781543;79;21025;-81
2022/10/19 05:46:24;;;;;;;18.90;11.50;;;;;;;12.45;76.08;99488.67;1792238;79;20997;-80
2022/10/19 05:48:51;;;;;;;15.08;10.82;;;;;;;12.43;76.14;99498.69;1798741;79;20985;-79
2022/10/19 05:51:19;;;;;;;12.40;8.90;;;;;;;12.39;76.15;99512.37;1780651;79;21501;-80
2022/10/19 05:53:45;;;;;;;13.72;9.25;;;;;;;12.42;76.06;99497.87;1779607;79;21580;-82
2022/10/19 05:56:15;;;;;;;12.18;8.00;;;;;;;12.54;75.67;99482.23;1797525;79;21037;-81
2022/10/19 05:58:42;;;;;;;9.55;8.08;;;;;;;12.58;75.61;99487.50;1777734;79;21044;-82
2022/10/19 06:01:10;;;;;;;12.05;9.00;;;;;;;12.58;75.34;99482.17;1779543;79;21080;-80
2022/10/19 06:03:37;;;;;;;12.73;8.63;;;;;;;12.58;75.13;99490.98;1791355;79;21110;-78
2022/10/19 06:06:05;;;;;;;13.15;8.28;;;;;;;12.57;75.12;99503.16;1802313;79;21029;-79
2022/10/19 06:08:32;;;;;;;11.75;8.85;;;;;;;12.56;74.93;99509.00;1795526;79;21143;-78
2022/10/19 06:11:12;;;;;;;10.25;7.67;;;;;;;12.54;74.92;99514.20;1802268;79;21025;-79
2022/10/19 06:13:39;;;;;;;9.90;7.78;;;;;;;12.64;74.74;99524.56;1810791;78;21021;-79
2022/10/19 06:16:08;;;;;;;16.60;9.03;;;;;;;12.76;74.37;99515.06;1780428;78;21111;-78
2022/10/19 06:18:36;;;;;;;9.88;7.47;;;;;;;12.75;74.31;99516.91;1789605;78;21589;-80
2022/10/19 06:21:06;;;;;;;11.65;7.25;;;;;;;12.76;74.17;99511.06;1774918;80;20948;-79
2022/10/19 06:23:34;;;;;;;9.45;6.08;;;;;;;12.76;73.93;99499.89;1792686;78;21003;-79
2022/10/19 06:26:09;;;;;;;7.17;5.03;;;;;;;12.78;73.67;99507.19;1822581;78;21478;-79
2022/10/19 06:28:39;;;;;;;8.15;7.05;;;;;;;12.79;73.29;99520.84;1789566;80;21509;-79
2022/10/19 06:31:06;;;;;;;7.08;5.42;;;;;;;12.79;73.08;99524.84;1799599;77;21128;-76
2022/10/19 06:33:33;;;;;;;7.33;4.97;;;;;;;12.77;72.94;99530.05;1816152;78;21068;-75
2022/10/19 06:36:14;;;;;;;5.28;4.42;;;;;;;12.80;72.83;99524.33;1808333;78;21057;-76
2022/10/19 06:38:42;;;;;;;6.03;4.42;;;;;;;12.92;72.51;99530.84;1774935;78;21013;-75
2022/10/19 06:41:10;;;;;;;4.50;3.72;;;;;;;12.94;72.17;99534.63;1818007;77;21247;-77
2022/10/19 06:43:36;;;;;;;6.15;3.98;;;;;;;12.90;72.00;99535.55;1777413;80;21545;-77
2022/10/19 06:46:07;;;;;;;5.42;4.30;;;;;;;12.85;71.89;99542.45;1797217;78;21119;-76
2022/10/19 06:48:34;;;;;;;5.65;5.05;;;;;;;12.84;71.82;99552.78;1797757;78;21083;-75
2022/10/19 06:51:03;;;;;;;6.28;4.17;;;;;;;12.83;71.77;99550.63;1798877;79;21017;-75
2022/10/19 06:53:33;;;;;;;5.83;4.15;;;;;;;12.84;71.63;99553.59;1804032;79;21084;-77
2022/10/19 06:56:02;;;;;;;4.58;2.98;;;;;;;12.84;71.55;99553.59;1798641;78;21017;-77
2022/10/19 06:58:28;;;;;;;7.58;2.62;;;;;;;12.84;71.45;99550.11;1803431;79;21068;-78
2022/10/19 07:00:58;;;;;;;3.92;2.80;;;;;;;12.95;71.27;99558.96;1794898;78;21037;-78
2022/10/19 07:03:26;;;;;;;4.10;2.85;;;;;;;13.04;70.88;99561.84;1812313;78;21219;-76
2022/10/19 07:05:56;;;;;;;4.45;2.67;;;;;;;13.07;70.83;99556.63;1819686;78;21263;-77
2022/10/19 07:08:26;;;;;;;7.35;3.27;;;;;;;13.12;70.68;99560.90;1774504;80;21517;-78
2022/10/19 07:10:59;;;;;;;4.95;3.42;;;;;;;13.18;70.52;99562.28;1795221;78;21013;-79
2022/10/19 07:13:27;;;;;;;4.30;3.10;;;;;;;13.23;70.39;99562.22;1813709;78;20986;-78
2022/10/19 07:16:02;;;;;;;6.25;3.30;;;;;;;13.24;70.39;99563.89;1811716;78;21333;-78
2022/10/19 07:18:29;;;;;;;12.03;3.45;;;;;;;13.25;70.36;99552.19;1829642;78;21182;-77
2022/10/19 07:20:59;;;;;;;8.10;3.30;;;;;;;13.25;70.30;99550.85;1807221;78;21090;-78
2022/10/19 07:23:27;;;;;;;7.47;2.98;;;;;;;13.29;70.23;99561.45;1797564;78;21089;-77
2022/10/19 07:26:00;;;;;;;4.58;2.65;;;;;;;13.32;70.15;99555.27;1801912;78;21496;-78
2022/10/19 07:28:25;;;;;;;5.17;3.00;;;;;;;13.45;70.09;99557.25;1788930;78;21527;-79
2022/10/19 07:31:10;;;;;;;;;;;;;;;;;;;;;
2022/10/19 07:33:28;;;;;;;7.80;3.95;;;;;;;13.70;69.84;99540.84;1784711;78;21069;-77
2022/10/19 07:35:58;;;;;;;19.25;5.00;;;;;;;13.85;69.56;99551.41;1789361;78;21088;-77
2022/10/19 07:38:25;;;;;;;9.55;3.80;;;;;;;13.91;69.33;99547.46;1782368;78;21061;-80
2022/10/19 07:41:02;;;;;;;5.60;3.12;;;;;;;14.00;69.24;99545.97;1814756;77;21555;-81
2022/10/19 07:43:29;;;;;;;7.65;3.47;;;;;;;14.11;68.82;99541.42;1792639;79;21076;-80
2022/10/19 07:46:06;;;;;;;3.70;2.70;;;;;;;14.17;68.39;99543.31;1806527;78;21085;-79
2022/10/19 07:48:34;;;;;;;4.80;2.98;;;;;;;14.23;68.15;99535.84;1804442;78;21013;-80
2022/10/19 07:51:02;;;;;;;3.83;2.60;;;;;;;14.28;67.83;99537.42;1788536;79;21320;-81
2022/10/19 07:53:28;;;;;;;4.15;3.37;;;;;;;14.31;67.64;99534.37;1786492;79;21022;-75
2022/10/19 07:55:55;;;;;;;3.45;2.92;;;;;;;14.37;67.37;99540.77;1781173;79;21145;-82
2022/10/19 07:58:23;;;;;;;3.75;2.85;;;;;;;14.38;67.14;99534.39;1784160;79;21267;-81
2022/10/19 08:00:54;;;;;;;8.60;3.00;;;;;;;14.37;67.11;99543.44;1788300;79;21079;-81
2022/10/19 08:03:20;;;;;;;3.30;2.85;;;;;;;14.35;67.09;99544.97;1757504;80;21505;-78
2022/10/19 08:05:47;;;;;;;4.30;3.00;;;;;;;14.31;67.05;99543.72;1812149;77;20994;-80
2022/10/19 08:08:13;;;;;;;5.67;3.30;;;;;;;14.25;67.13;99540.98;1789102;79;21191;-79
2022/10/19 08:10:40;;;;;;;4.85;2.67;;;;;;;14.15;67.31;99529.33;1754593;79;21117;-77
2022/10/19 08:13:06;;;;;;;3.22;2.37;;;;;;;14.13;67.38;99537.53;1786467;78;21049;-77
2022/10/19 08:15:33;;;;;;;2.83;2.30;;;;;;;14.09;67.41;99530.12;1785483;79;21136;-80
2022/10/19 08:18:01;;;;;;;3.40;2.52;;;;;;;14.03;67.52;99530.91;1786662;78;21057;-79
2022/10/19 08:20:28;;;;;;;3.30;2.40;;;;;;;13.95;67.62;99535.37;1755382;80;21084;-78
2022/10/19 08:22:55;;;;;;;3.30;2.30;;;;;;;13.92;67.81;99529.07;1807418;77;21108;-78
2022/10/19 08:25:24;;;;;;;3.95;2.10;;;;;;;13.92;67.92;99533.08;1811923;78;21020;-79
2022/10/19 08:27:51;;;;;;;3.52;2.52;;;;;;;14.02;67.81;99534.06;1776656;78;21050;-78
2022/10/19 08:30:19;;;;;;;4.33;2.37;;;;;;;14.04;67.85;99532.53;1775035;78;21092;-81
2022/10/19 08:32:46;;;;;;;3.27;2.40;;;;;;;14.04;67.87;99524.03;1789093;79;21085;-79
2022/10/19 08:35:12;;;;;;;4.30;2.45;;;;;;;14.06;67.75;99517.98;1792326;79;21052;-74
2022/10/19 08:37:38;;;;;;;2.50;1.87;;;;;;;14.09;67.49;99521.58;1780542;79;21477;-74
2022/10/19 08:40:10;;;;;;;2.52;1.98;;;;;;;14.15;67.29;99526.66;1784998;78;21005;-73
2022/10/19 08:43:01;;;;;;;3.67;2.37;;;;;;;14.14;67.37;99521.02;1776225;79;21002;-75
2022/10/19 08:45:40;;;;;;;2.40;2.20;;;;;;;14.08;67.45;99529.78;1813355;78;21038;-78
2022/10/19 08:48:22;;;;;;;3.50;2.33;;;;;;;14.11;67.60;99530.74;1804215;78;21489;-80
2022/10/19 08:50:48;;;;;;;4.75;1.75;;;;;;;14.20;67.37;99530.06;1790624;79;20995;-78
2022/10/19 08:53:33;;;;;;;4.67;1.80;;;;;;;14.28;66.72;99530.73;1809594;78;21085;-77
2022/10/19 08:56:25;;;;;;;3.77;1.70;;;;;;;14.36;66.30;99532.42;1782183;80;21038;-79
2022/10/19 08:59:10;;;;;;;7.97;2.55;;;;;;;14.45;65.83;99534.44;1813263;77;21300;-79
2022/10/19 09:01:54;;;;;;;6.20;2.52;;;;;;;14.58;65.63;99533.16;1792970;79;20975;-78
2022/10/19 09:04:37;;;;;;;5.12;2.17;;;;;;;14.67;65.16;99531.16;1791668;78;21181;-78
2022/10/19 09:07:29;;;;;;;3.05;2.20;;;;;;;14.70;64.88;99533.44;1792806;78;21107;-78
2022/10/19 09:10:12;;;;;;;3.37;2.05;;;;;;;14.72;64.84;99524.70;1783347;79;21028;-76
2022/10/19 09:13:00;;;;;;;;;;;;;;;14.72;64.54;99530.88;1797675;78;21072;-77
2022/10/19 09:15:41;;;;;;;3.85;2.58;;;;;;;14.66;64.68;99533.02;1789691;78;20213;-78
2022/10/19 09:18:13;;;;;;;4.50;2.87;;;;;;;14.53;65.02;99519.56;1790729;78;21033;-75
2022/10/19 09:20:43;;;;;;;5.05;3.75;;;;;;;14.52;65.21;99520.05;1782666;79;21072;-74
2022/10/19 09:23:34;;;;;;;6.05;4.33;;;;;;;14.54;65.31;99522.04;1780039;79;21533;-76
2022/10/19 09:26:01;;;;;;;6.33;4.33;;;;;;;14.60;65.17;99516.41;1798154;78;21917;-79
2022/10/19 09:28:48;;;;;;;6.40;3.10;;;;;;;14.70;64.94;99517.41;1796864;78;21390;-78
2022/10/19 09:31:33;;;;;;;4.70;2.45;;;;;;;14.75;64.70;99512.25;1790715;78;21072;-76
2022/10/19 09:34:24;;;;;;;3.85;2.77;;;;;;;14.77;64.37;99516.89;1767575;79;21547;-80
2022/10/19 09:36:56;;;;;;;4.00;2.80;;;;;;;14.71;64.31;99514.50;1788566;78;21511;-80
2022/10/19 09:39:28;;;;;;;3.95;2.50;;;;;;;14.69;64.36;99521.08;1781989;78;21184;-80
2022/10/19 09:42:21;;;;;;;4.70;2.60;;;;;;;14.66;64.40;99512.96;1786826;79;21010;-83
2022/10/19 09:44:49;;;;;;;5.00;2.17;;;;;;;14.62;64.53;99506.37;1785972;79;20962;-79
2022/10/19 09:47:40;;;;;;;7.12;2.90;;;;;;;14.52;64.70;99501.86;1792440;79;21033;-85
2022/10/19 09:50:25;;;;;;;5.75;2.20;;;;;;;14.44;65.00;99506.86;1797974;79;21425;-78
2022/10/19 09:53:04;;;;;;;4.58;2.85;;;;;;;14.35;65.23;99504.88;1778152;80;21193;-90
2022/10/19 09:55:46;;;;;;;8.65;3.37;;;;;;;14.32;65.51;99500.45;1802940;78;21048;-80
2022/10/19 09:58:17;;;;;;;3.90;2.55;;;;;;;14.41;65.57;99499.26;1778055;79;20935;-88
2022/10/19 10:00:54;;;;;;;5.92;3.35;;;;;;;14.61;65.40;99501.22;1740209;79;21198;-83
2022/10/19 10:03:28;;;;;;;4.05;2.27;;;;;;;14.79;65.13;99492.11;1723818;82;21035;-84
2022/10/19 10:05:57;;;;;;;6.40;2.90;;;;;;;14.92;64.52;99494.81;1713743;82;21105;-83
2022/10/19 10:08:28;;;;;;;3.80;2.70;;;;;;;14.96;64.33;99497.91;1735882;81;20971;-81
2022/10/19 10:11:07;;;;;;;6.30;2.27;;;;;;;14.89;64.28;99486.37;1730171;82;20966;-79
2022/10/19 10:13:40;;;;;;;4.97;2.50;;;;;;;14.82;64.12;99486.89;1722042;82;21019;-84
2022/10/19 10:16:10;;;;;;;5.97;2.58;;;;;;;14.71;64.19;99486.42;1730648;81;21689;-85
2022/10/19 10:18:46;;;;;;;3.15;2.50;;;;;;;14.65;64.42;99488.57;1728073;82;21790;-83
2022/10/19 10:21:20;;;;;;;5.97;3.00;;;;;;;14.62;64.44;99475.63;1710061;81;21085;-83
2022/10/19 10:24:11;;;;;;;6.50;3.22;;;;;;;14.58;64.53;99475.69;1704309;81;21206;-82
2022/10/19 10:26:54;;;;;;;6.50;3.17;;;;;;;14.59;64.32;99469.85;1728700;82;21046;-86
2022/10/19 10:29:34;;;;;;;5.17;2.60;;;;;;;14.52;64.32;99485.30;1700331;82;21052;-81
2022/10/19 10:32:14;;;;;;;5.95;2.80;;;;;;;14.41;64.42;99479.22;1698518;82;22605;-84
2022/10/19 10:35:00;;;;;;;4.85;2.47;;;;;;;14.39;64.57;99483.09;1674193;84;21136;-81
2022/10/19 10:37:43;;;;;;;2.95;1.95;;;;;;;14.38;64.31;99480.94;1699633;84;21027;-80
2022/10/19 10:40:24;;;;;;;7.87;2.08;;;;;;;14.50;64.06;99483.34;1695312;82;21136;-80
2022/10/19 10:42:52;;;;;;;4.53;2.15;;;;;;;14.70;63.47;99478.11;1695782;82;21057;-81
2022/10/19 10:45:29;;;;;;;7.97;1.82;;;;;;;14.85;63.10;99466.41;1696223;83;21855;-81
2022/10/19 10:47:57;;;;;;;2.65;1.98;;;;;;;15.10;61.97;99472.85;1700572;83;21057;-81
2022/10/19 10:50:27;;;;;;;3.50;2.08;;;;;;;15.31;60.91;99472.33;1674653;84;21200;-80
2022/10/19 10:53:03;;;;;;;3.42;2.22;;;;;;;15.41;60.13;99463.37;1697801;82;22218;-80
2022/10/19 10:55:31;;;;;;;3.37;1.80;;;;;;;15.54;59.57;99464.70;1727230;82;21089;-81
2022/10/19 10:58:34;;;;;;;2.22;1.85;;;;;;;15.65;58.54;99462.45;1701607;82;22104;-81
2022/10/19 11:01:21;;;;;;;3.42;1.67;;;;;;;15.77;57.75;99457.30;1659692;84;21117;-81
2022/10/19 11:04:20;;;;;;;4.83;1.85;;;;;;;15.84;56.18;99459.44;1682976;84;21108;-83
2022/10/19 11:06:58;;;;;;;2.67;1.80;;;;;;;15.79;55.43;99449.36;1694766;84;20981;-80
2022/10/19 11:09:39;;;;;;;2.70;2.08;;;;;;;15.81;54.96;99447.30;1700783;84;21042;-80
2022/10/19 11:12:11;;;;;;;2.85;2.12;;;;;;;16.03;54.34;99441.17;1664762;85;21346;-81
2022/10/19 11:14:56;;;;;;;2.83;1.70;;;;;;;16.44;54.10;99444.52;1692996;84;21085;-81
2022/10/19 11:17:29;;;;;;;3.42;2.47;;;;;;;16.83;52.41;99437.31;1663086;84;21184;-82
2022/10/19 11:19:56;;;;;;;2.20;1.92;;;;;;;16.97;52.33;99440.20;1721013;81;21010;-82
2022/10/19 11:22:47;;;;;;;2.98;2.08;;;;;;;16.88;52.32;99436.13;1688248;83;21524;-81
2022/10/19 11:25:20;;;;;;;2.87;1.87;;;;;;;16.64;52.55;99437.17;1715102;81;21084;-82
2022/10/19 11:28:16;;;;;;;3.73;2.37;;;;;;;16.29;52.84;99432.20;1715945;81;21053;-81
2022/10/19 11:30:58;;;;;;;2.90;1.85;;;;;;;16.06;53.47;99418.48;1697507;82;21052;-82
2022/10/19 11:33:51;;;;;;;3.20;2.20;;;;;;;16.07;54.25;99419.63;1669206;85;21118;-81
2022/10/19 11:36:38;;;;;;;4.58;2.62;;;;;;;16.29;53.93;99414.77;1721994;81;21030;-81
2022/10/19 11:39:27;;;;;;;3.50;2.20;;;;;;;16.41;53.52;99409.56;1719077;81;21186;-81
2022/10/19 11:42:15;;;;;;;3.20;2.20;;;;;;;16.37;53.25;99405.67;1722027;81;21025;-81
2022/10/19 11:45:24;;;;;;;3.02;2.22;;;;;;;16.79;53.08;99394.50;1720088;81;21050;-83
2022/10/19 11:48:16;;;;;;;2.40;2.20;;;;;;;17.84;50.93;99393.27;1713413;81;21082;-82
2022/10/19 11:51:03;;;;;;;7.28;2.90;;;;;;;18.54;49.45;99375.83;1693274;82;21045;-84
2022/10/19 11:53:54;;;;;;;4.25;2.50;;;;;;;18.88;49.22;99368.13;1723935;81;21103;-80